WEATHER DATA

YESTERDAY
Time Temp. Dewp. Hum. Wind dir Wind speed Wind gust Bar. 1h Prec. 24h Prec.
00:05 22.2 18.2 78 90 0.3 0.6 1012.4 0.0000 0.0000
00:16 22.1 18.1 78 90 0.3 1.1 1012.2 0.0000 0.0000
00:26 22 18 78 90 0.3 0.6 1012 0.0000 0.0000
00:36 21.8 17.8 78 90 0.3 1.1 1012.1 0.0000 0.0000
00:46 21.7 17.7 78 90 0.3 1.1 1012.1 0.0000 0.0000
00:56 21.5 17.5 78 90 0.3 1.1 1012 0.0000 0.0000
01:06 21.5 17.5 78 90 0.3 1.4 1012.1 0.0000 0.0000
01:17 21.4 17.4 78 90 0.3 0.6 1012 0.0000 0.0000
01:27 21.3 17.3 78 90 0.3 0.6 1012 0.0000 0.0000
01:37 21.2 17.2 78 90 0.3 1.1 1012 0.0000 0.0000
01:47 21.2 17.2 78 90 0.3 0.6 1011.9 0.0000 0.0000
01:57 21.1 17.1 78 90 0.3 1.1 1012.1 0.0000 0.0000
02:08 21 17 78 90 0.3 1.1 1012.1 0.0000 0.0000
02:18 20.9 16.9 78 90 0.3 0.6 1012 0.0000 0.0000
02:28 20.9 16.9 78 90 0.3 0.6 1012 0.0000 0.0000
02:39 20.9 17.1 79 90 0.3 1.1 1012 0.0000 0.0000
02:50 20.9 17.1 79 90 0.3 1.1 1011.9 0.0000 0.0000
03:08 21 17.2 79 90 0.3 1.1 1011.8 0.0000 0.0000
03:18 21 17.2 79 90 0.3 1.1 1011.7 0.0000 0.0000
03:28 21 17.2 79 90 0.3 1.1 1011.6 0.0000 0.0000
03:38 21 17.4 80 90 0.3 0.6 1011.6 0.0000 0.0000
03:49 21.1 17.5 80 90 0.3 1.1 1011.6 0.0000 0.0000
04:00 21.2 17.6 80 90 0.3 1.1 1011.6 0.0000 0.0000
04:11 21.2 17.6 80 90 0.3 1.1 1011.5 0.0000 0.0000
04:20 21.1 17.5 80 90 0.3 0.6 1011.5 0.0000 0.0000
04:30 21.1 17.5 80 90 0.3 0.6 1011.4 0.0000 0.0000
04:41 21.1 17.5 80 90 0.3 1.1 1011.5 0.0000 0.0000
04:51 21.1 17.5 80 90 0.3 1.1 1011.5 0.0000 0.0000
05:01 21.1 17.5 80 75 0.6 1.1 1011.5 0.0000 0.0000
05:12 21.1 17.5 80 90 0.3 1.1 1011.5 0.0000 0.0000
05:28 21.2 17.8 81 90 0.6 1.1 1011.6 0.0000 0.0000
05:42 21.2 17.8 81 90 0.3 0.6 1011.8 0.0000 0.0000
05:53 21.2 17.8 81 90 0.3 1.1 1011.9 0.0000 0.0000
06:03 21.2 17.8 81 90 0.3 1.1 1012 0.0000 0.0000
06:13 21.2 17.8 81 90 0.3 1.1 1012.1 0.0000 0.0000
06:23 21.2 17.8 81 90 0.3 1.1 1012.2 0.0000 0.0000
06:33 21.3 17.9 81 90 0.3 1.1 1012.3 0.0000 0.0000
06:43 21.3 17.9 81 90 0.3 1.1 1012.3 0.0000 0.0000
07:02 21.4 18 81 90 0.3 1.1 1012.6 0.0000 0.0000
07:03 21.4 18 81 90 0.3 1.1 1012.7 0.0000 0.0000
07:18 21.5 18.1 81 90 0.3 1.1 1012.8 0.0000 0.0000
07:28 21.6 18.2 81 90 0.3 1.1 1012.9 0.0000 0.0000
07:38 21.7 18.3 81 90 0.3 1.1 1012.9 0.0000 0.0000
07:48 21.8 18.4 81 90 0.3 0.6 1013 0.0000 0.0000
07:58 21.8 18.6 82 90 0.3 1.1 1013 0.0000 0.0000
08:09 22 18.8 82 90 0.3 1.1 1013.2 0.0000 0.0000
08:19 22.1 18.9 82 90 0.3 1.1 1013.3 0.1010 0.1000
08:29 22.3 19.1 82 90 0.3 0.6 1013.3 0.1010 0.1000
08:39 22.6 19.4 82 90 0.3 0.6 1013.4 0.1010 0.1000
08:49 22.9 19.7 82 90 0.3 0.6 1013.3 0.1010 0.1000
08:59 23.2 19.8 81 90 0.6 1.1 1013.4 0.1010 0.1000
09:09 23.7 20.2 81 90 0.3 1.4 1013.3 0.1010 0.1000
09:19 24.2 20.5 80 75 0.6 1.4 1013.3 0.0000 0.1000
09:29 24.6 20.7 79 90 0.6 1.7 1013.2 0.0000 0.1000
09:40 25.1 21.2 79 90 0.6 1.4 1013.1 0.0000 0.1000
09:50 25.7 21.6 78 65 0.6 1.7 1013.1 0.0000 0.1000
10:00 26.2 21.8 77 69 0.6 1.4 1013 0.0000 0.1000
10:03 26.4 22 77 65 0.6 1.4 1013 0.0000 0.1000
10:17 27.1 22.1 74 90 1.1 1.9 1012.8 0.0000 0.1000
10:27 27 22 74 90 1.1 2.5 1012.8 0.0000 0.1000
10:37 27.2 21.9 73 90 0.6 2.5 1012.7 0.0000 0.1000
10:47 27.2 21.7 72 90 0.6 2.5 1012.7 0.0000 0.1000
10:58 26.8 21.3 72 90 1.1 2.5 1012.7 0.0000 0.1000
11:07 26.6 21.1 72 106 0.6 3.3 1012.6 0.0000 0.1000
11:17 26.4 20.7 71 225 0.6 2.5 1012.7 0.0000 0.1000
11:28 26.2 20.5 71 90 1.1 3.6 1012.8 0.0000 0.1000
11:38 26.1 20.4 71 82 1.1 2.5 1012.8 0.0000 0.1000
11:42 26.1 20.4 71 140 1.1 3.1 1012.9 0.0000 0.1000
11:53 26 20.3 71 189 1.1 3.1 1013 0.0000 0.1000
12:03 25.8 20.1 71 90 1.4 3.3 1013.2 0.0000 0.1000
12:13 25.4 20 72 90 1.4 3.3 1013.2 0.0000 0.1000
12:23 24.8 19.9 74 104 1.4 3.3 1013.4 0.0000 0.1000
12:33 24.2 19.5 75 104 1.4 3.3 1013.4 0.0000 0.1000
12:43 24 19.5 76 102 1.4 3.1 1013.6 0.0000 0.1000
12:54 23.8 19.5 77 104 1.1 2.8 1013.6 0.0000 0.1000
13:04 23.7 19.4 77 99 1.4 4.2 1013.6 0.0000 0.1000
13:14 23.9 19.6 77 96 1.4 2.8 1013.6 0.0000 0.1000
13:24 24.2 19.9 77 90 1.4 3.1 1013.5 0.0000 0.1000
13:34 24.6 19.7 74 90 1.4 4.2 1013.4 0.0000 0.1000
13:45 24.9 19.7 73 90 1.4 3.3 1013.3 0.0000 0.1000
13:55 25.4 20.4 74 100 1.1 2.8 1013.1 0.0000 0.1000
14:05 25.6 20.2 72 104 1.4 3.3 1013.1 0.0000 0.1000
14:12 25.7 20.3 72 107 1.4 3.3 1013 0.0000 0.1000
14:22 26 20.6 72 103 1.7 3.6 1012.9 0.0000 0.1000
14:36 25.9 20 70 101 1.7 3.6 1013.1 0.0000 0.1000
14:46 25.9 20.2 71 103 1.7 3.3 1013.1 0.0000 0.1000
14:56 25.8 19.9 70 104 1.9 4.4 1013.1 0.0000 0.1000
15:06 25.5 19.6 70 105 1.7 3.3 1013.1 0.0000 0.1000
15:17 25.3 19.7 71 97 1.4 3.3 1013.2 0.0000 0.1000
15:27 25 19.4 71 97 1.7 3.3 1013.1 0.0000 0.1000
15:37 24.8 19.4 72 90 1.4 2.5 1013.1 0.0000 0.1000
15:47 24.8 19.4 72 103 1.7 3.1 1013.1 0.0000 0.1000
15:53 24.7 19.1 71 90 1.4 4.2 1013 0.0000 0.1000
16:08 24.8 19.4 72 90 1.1 3.1 1013 0.0000 0.1000
16:17 24.9 19.5 72 90 1.1 1.9 1012.9 0.0000 0.1000
16:28 24.9 19.3 71 90 1.1 2.5 1012.8 0.0000 0.1000
16:38 24.9 19.3 71 90 1.1 2.5 1012.8 0.0000 0.1000
16:48 24.8 19.2 71 98 1.1 2.5 1012.9 0.0000 0.1000
16:58 24.6 19 71 90 1.4 2.5 1012.8 0.0000 0.1000
17:09 24.6 19 71 100 1.4 3.1 1012.9 0.0000 0.1000
17:19 24.5 18.9 71 101 1.4 2.8 1013 0.0000 0.1000
17:30 24.6 19 71 100 1.4 3.3 1013 0.0000 0.1000
17:40 24.5 18.9 71 106 1.1 1.9 1013.1 0.0000 0.1000
17:50 24.3 18.9 72 98 1.4 2.5 1013.3 0.0000 0.1000
18:00 24.2 18.8 72 100 1.4 3.1 1013.4 0.0000 0.1000
18:10 24.1 18.7 72 90 1.4 2.8 1013.6 0.0000 0.1000
18:20 23.9 18.8 73 99 1.4 3.1 1013.7 0.0000 0.1000
18:30 23.7 18.6 73 96 1.4 3.1 1013.8 0.0000 0.1000
18:41 23.6 18.7 74 105 1.4 2.5 1013.8 0.0000 0.1000
18:47 23.6 18.7 74 104 1.1 1.9 1013.9 0.0000 0.1000
19:01 23.6 18.7 74 111 1.4 2.5 1013.9 0.0000 0.1000
19:11 23.5 18.8 75 104 1.1 2.8 1014.1 0.0000 0.1000
19:31 23.3 18.6 75 98 1.1 2.8 1014.5 0.0000 0.1000
19:42 23.3 18.6 75 90 0.6 1.7 1014.6 0.0000 0.1000
20:02 23.2 18.5 75 90 1.1 2.5 1014.8 0.0000 0.1000
20:12 23.2 18.5 75 111 1.1 2.8 1015 0.0000 0.1000
20:23 22.8 18.4 76 111 0.6 1.9 1015.1 0.0000 0.1000
20:33 22.6 18.4 77 90 0.6 1.7 1015.3 0.0000 0.1000
20:42 22.5 18.3 77 101 1.1 1.9 1015.4 0.0000 0.1000
20:53 22.4 18.2 77 104 1.1 1.9 1015.5 0.0000 0.1000
21:03 22.3 18.1 77 90 0.6 1.4 1015.5 0.0000 0.1000
21:13 22.2 18.2 78 90 0.6 1.7 1015.5 0.0000 0.1000
21:23 22 18 78 90 0.6 1.1 1015.6 0.0000 0.1000
21:33 21.9 17.9 78 90 0.3 1.1 1015.6 0.0000 0.1000
21:44 21.7 17.9 79 90 0.3 1.4 1015.6 0.0000 0.1000
21:54 21.6 17.8 79 90 0.6 1.1 1015.5 0.0000 0.1000
22:04 21.6 17.8 79 90 0.6 1.4 1015.5 0.0000 0.1000
22:14 21.4 17.6 79 90 0.3 0.6 1015.6 0.0000 0.1000
22:24 21.3 17.5 79 90 0.3 0.6 1015.5 0.0000 0.1000
22:34 21.2 17.6 80 90 0.3 0.6 1015.5 0.0000 0.1000
22:44 21.2 17.6 80 90 0.3 0.6 1015.5 0.0000 0.1000
22:54 21.1 17.5 80 90 0.3 0.6 1015.6 0.0000 0.1000
23:06 21.1 17.5 80 90 0.3 0.6 1015.4 0.0000 0.1000
23:15 21.1 17.5 80 90 0.3 0.6 1015.4 0.0000 0.1000
23:26 21.1 17.5 80 90 0.3 0.6 1015.3 0.0000 0.1000
23:36 21.1 17.5 80 90 0.3 0.6 1015.3 0.0000 0.1000
23:46 21 17.4 80 90 0.3 0.6 1015.3 0.0000 0.1000
23:56 21 17.6 81 90 0.3 0.6 1015.2 0.0000

DAY STATISTIC

2020-01-17
TEMPERATURE
AVERAGE
23.1
HIGH
27.2
10:37
LOW
20.9
02:18
PRESSURE
AVERAGE
1013.2
HIGH
1015.6
21:23
LOW
1011.4
04:30
DEWPOINT
AVERAGE
18.8
HIGH
22.1
10:17
LOW
16.9
02:18
HUMIDITY
AVERAGE
77
HIGH
82
07:58
LOW
70
14:36
WIND SPEED
AVERAGE
0.8
HIGH
1.9
14:56
WIND GUST
AVERAGE
1.8
HIGH
4.4
14:56
WIND DIRECTION
PREVAILING
E
96.4%
N
0.0
NE
1.4
E
96.4
SE
0.7
S
0.7
SW
0.7
W
0.0
NW
0.0
PRECIPITATION
RAIN HOUR
0.1
RAIN DAY
0.1
TEMPERATURE (°C)
LOW
20.9
HIGH
27.2
AVERAGE
23.1
PRESSURE (hpa)
LOW
1011.4
HIGH
1015.6
AVERAGE
1013.2
DEVICE